MSC Vigo — A8ZV8 — position and weather

sailwx.info

Track history (hours):
 
Tides and Currents Weather Stations Pressure Air Temp Water Temp Dewpoint Dewpoint Depression Visibility Wind Speed Wind Dir Waves Ship Positions

MSC Vigo

Last reported at 2016-Aug-29 09:09 UTC. Time now 2016-Aug-31 00:31 UTC.
Position S 27°54' W 048°13'.

Length 270 m; draft 10 m.

Type: Ship (hazmat cat A). MMSI: 636092276.

Date/timePositionNaut miles runAvg speedWind from/ knotsBaromVisibWave heightAir tempDewpointWater temp
2016-Aug-29 09:09S 27°54' W 048°13'1219.7
2016-Aug-29 08:33S 27°43' W 048°09'1919.4
2016-Aug-29 07:33S 27°25' W 048°01'9819.6
2016-Aug-29 02:33S 25°56' W 047°15'2019.8
2016-Aug-29 01:33S 25°38' W 047°06'2019.7
2016-Aug-29 00:34S 25°20' W 046°57'2019.6
2016-Aug-28 23:34S 25°02' W 046°49'2019.5
2016-Aug-28 22:34S 24°45' W 046°39'2019.7
2016-Aug-28 21:34S 24°27' W 046°31'1919.1
2016-Aug-28 20:34S 24°09' W 046°24'1110.5
2016-Aug-28 19:33S 23°60' W 046°18'5 1.6
2016-Aug-28 16:25S 23°55' W 046°21'0 0.0
2016-Aug-28 14:13S 23°55' W 046°21'0 0.0
2016-Aug-28 13:19S 23°55' W 046°21'0 0.0
2016-Aug-28 12:25S 23°55' W 046°21'0 0.0
2016-Aug-28 11:28S 23°55' W 046°21'0 0.0
2016-Aug-28 10:25S 23°55' W 046°21'0 0.0
2016-Aug-28 09:31S 23°55' W 046°21'0 0.0
2016-Aug-28 08:25S 23°55' W 046°21'0 0.0
2016-Aug-28 07:31S 23°55' W 046°21'0 0.0
2016-Aug-28 03:25S 23°55' W 046°21'0 0.0
2016-Aug-28 02:25S 23°55' W 046°21'0 0.0
2016-Aug-28 01:22S 23°55' W 046°21'3 3.1
2016-Aug-28 00:33S 23°57' W 046°19'7 7.4
2016-Aug-27 23:33S 24°04' W 046°22'1 1.1
2016-Aug-27 22:33S 24°05' W 046°22'2 1.7
2016-Aug-27 21:33S 24°05' W 046°20'5 5.3
2016-Aug-27 20:34S 24°05' W 046°14'8 8.1
2016-Aug-27 19:33S 24°04' W 046°05'11 8.9
2016-Aug-27 18:17S 24°02' W 045°53'1911.1
2016-Aug-27 16:33S 24°01' W 045°32'14017.0
2016-Aug-27 08:17S 23°03' W 043°12'810.7
2016-Aug-27 07:33S 22°57' W 043°08'5 5.4
2016-Aug-27 06:34S 22°53' W 043°12'0 0.1
2016-Aug-27 04:32S 22°53' W 043°12'0 0.0
2016-Aug-27 03:32S 22°53' W 043°12'0 0.0
2016-Aug-27 02:32S 22°53' W 043°12'0 0.0
2016-Aug-27 01:32S 22°53' W 043°12'0 0.0
2016-Aug-27 00:32S 22°53' W 043°12'0 0.0
2016-Aug-26 23:32S 22°53' W 043°12'0 0.0
2016-Aug-26 22:32S 22°53' W 043°12'0 0.0
2016-Aug-26 21:32S 22°53' W 043°12'0 0.0
2016-Aug-26 20:32S 22°53' W 043°12'0 0.0
2016-Aug-26 19:32S 22°53' W 043°12'0 0.0
2016-Aug-26 18:20S 22°53' W 043°12'0 0.0
2016-Aug-26 17:32S 22°53' W 043°12'0 0.5
2016-Aug-26 16:34S 22°53' W 043°12'6 6.2
2016-Aug-26 15:34S 22°58' W 043°08'7 6.8
2016-Aug-26 14:33S 23°03' W 043°04'10 9.6
2016-Aug-26 13:33S 23°07' W 042°55'13 9.5
2016-Aug-26 12:13S 23°08' W 042°41'  
2016-Aug-22 12:00S 03°06' W 031°54'42717.8 160 / 121017.010.8 1.025.522.727.0
2016-Aug-21 12:00N 03°06' W 028°24'   170 / 151016.010.8 1.027.021.328.0
Track history (hours):
 
Tides and Currents Weather Stations Pressure Air Temp Water Temp Dewpoint Dewpoint Depression Visibility Wind Speed Wind Dir Waves Ship Positions

MSC Vigo

Last reported at 2016-Aug-29 09:09 UTC. Time now 2016-Aug-31 00:31 UTC.
Position S 27°54' W 048°13'.

Length 270 m; draft 10 m.

Type: Ship (hazmat cat A). MMSI: 636092276.

Date/timePositionNaut miles runAvg speedWind from/ knotsBaromVisibWave heightAir tempDewpointWater temp
2016-Aug-29 09:09S 27°54' W 048°13'1219.7
2016-Aug-29 08:33S 27°43' W 048°09'1919.4
2016-Aug-29 07:33S 27°25' W 048°01'9819.6
2016-Aug-29 02:33S 25°56' W 047°15'2019.8
2016-Aug-29 01:33S 25°38' W 047°06'2019.7
2016-Aug-29 00:34S 25°20' W 046°57'2019.6
2016-Aug-28 23:34S 25°02' W 046°49'2019.5
2016-Aug-28 22:34S 24°45' W 046°39'2019.7
2016-Aug-28 21:34S 24°27' W 046°31'1919.1
2016-Aug-28 20:34S 24°09' W 046°24'1110.5
2016-Aug-28 19:33S 23°60' W 046°18'5 1.6
2016-Aug-28 16:25S 23°55' W 046°21'0 0.0
2016-Aug-28 14:13S 23°55' W 046°21'0 0.0
2016-Aug-28 13:19S 23°55' W 046°21'0 0.0
2016-Aug-28 12:25S 23°55' W 046°21'0 0.0
2016-Aug-28 11:28S 23°55' W 046°21'0 0.0
2016-Aug-28 10:25S 23°55' W 046°21'0 0.0
2016-Aug-28 09:31S 23°55' W 046°21'0 0.0
2016-Aug-28 08:25S 23°55' W 046°21'0 0.0
2016-Aug-28 07:31S 23°55' W 046°21'0 0.0
2016-Aug-28 03:25S 23°55' W 046°21'0 0.0
2016-Aug-28 02:25S 23°55' W 046°21'0 0.0
2016-Aug-28 01:22S 23°55' W 046°21'3 3.1
2016-Aug-28 00:33S 23°57' W 046°19'7 7.4
2016-Aug-27 23:33S 24°04' W 046°22'1 1.1
2016-Aug-27 22:33S 24°05' W 046°22'2 1.7
2016-Aug-27 21:33S 24°05' W 046°20'5 5.3
2016-Aug-27 20:34S 24°05' W 046°14'8 8.1
2016-Aug-27 19:33S 24°04' W 046°05'11 8.9
2016-Aug-27 18:17S 24°02' W 045°53'1911.1
2016-Aug-27 16:33S 24°01' W 045°32'14017.0
2016-Aug-27 08:17S 23°03' W 043°12'810.7
2016-Aug-27 07:33S 22°57' W 043°08'5 5.4
2016-Aug-27 06:34S 22°53' W 043°12'0 0.1
2016-Aug-27 04:32S 22°53' W 043°12'0 0.0
2016-Aug-27 03:32S 22°53' W 043°12'0 0.0
2016-Aug-27 02:32S 22°53' W 043°12'0 0.0
2016-Aug-27 01:32S 22°53' W 043°12'0 0.0
2016-Aug-27 00:32S 22°53' W 043°12'0 0.0
2016-Aug-26 23:32S 22°53' W 043°12'0 0.0
2016-Aug-26 22:32S 22°53' W 043°12'0 0.0
2016-Aug-26 21:32S 22°53' W 043°12'0 0.0
2016-Aug-26 20:32S 22°53' W 043°12'0 0.0
2016-Aug-26 19:32S 22°53' W 043°12'0 0.0
2016-Aug-26 18:20S 22°53' W 043°12'0 0.0
2016-Aug-26 17:32S 22°53' W 043°12'0 0.5
2016-Aug-26 16:34S 22°53' W 043°12'6 6.2
2016-Aug-26 15:34S 22°58' W 043°08'7 6.8
2016-Aug-26 14:33S 23°03' W 043°04'10 9.6
2016-Aug-26 13:33S 23°07' W 042°55'13 9.5
2016-Aug-26 12:13S 23°08' W 042°41'  
2016-Aug-22 12:00S 03°06' W 031°54'42717.8 160 / 121017.010.8 1.025.522.727.0
2016-Aug-21 12:00N 03°06' W 028°24'   170 / 151016.010.8 1.027.021.328.0

Dump ship's entire track history